Burlington, NJ (08016)

6:42 AM EDT on March 30, 2015 (GMT -0400)
The Hutte | | Change Station
CLOSE
Current Station
Personal Weather Station
Location: Burlington, NJ
Elevation: 28 ft
Nearby Weather Stations

Elev 28 ft 40.08 °N, 74.82 °W | Updated 10 seconds ago

Overcast
Overcast
34.5 °F
Feels Like 34 °F
N
0.0
Wind Variable Wind from SSE
Gusts 5.0 mph

Today
High -- | Low -- °F
--% Chance of Precip.
Yesterday
High -- | Low -- °F
Precip. -- in
6:46 AM 7:21 PM
Waxing Gibbous, 79% visible
Pressure 29.99 in
Visibility 8.0 miles
Clouds Scattered Clouds 6500 ft
Mostly Cloudy 7500 ft
Overcast 9000 ft
Windchill 34 °F
Dew Point 32 °F
Humidity 89%
Rainfall 0.00 in
Snow Depth Not available.
UV 0 out of 12
Pollen 8.40 out of 12
Air Quality Not available.
Flu Activity Not available.
METAR KVAY 300954Z AUTO VRB03KT 8SM SCT065 BKN075 OVC090 01/M01 A2999 RMK AO2 SNE21 SLP156 P0000 T00061011

More Conditions Fewer Conditions

Pressure 29.99 in
Visibility 8.0 miles
Clouds Scattered Clouds 6500 ft
Mostly Cloudy 7500 ft
Overcast 9000 ft
Windchill 34 °F
Dew Point 32 °F
Humidity 89%
Rainfall 0.00 in
Snow Depth Not available.
UV 0 out of 12
Pollen 8.40 out of 12
Air Quality Not available.
Flu Activity Not available.
METAR KVAY 300954Z AUTO VRB03KT 8SM SCT065 BKN075 OVC090 01/M01 A2999 RMK AO2 SNE21 SLP156 P0000 T00061011

More Conditions Fewer Conditions

Nowcast | as of 5:56 am EDT on March 30, 2015

Into the middle of the morning commute an area of spotty light rain will move through the region. Snow could mix in toward and in the local Philadelphia area while the steadiest rain will be in Delmarva. Temperatures will remain in the mid to upper 30s.

×

10-Day Weather Forecast

Almanac

Astronomy

Mar. 30, 2015 Rise Set
Actual Time
Civil Twilight
Nautical Twilight
Astronomical Twilight
Moon
Length of Visible Light
Length of Day
Tomorrow will be .
, % of the Moon is Illuminated

Today's Extremes

State Highs State Lows

Community

WunderPhotos

Upload Photos

1,809,455 photos uploaded!

WunderBlogs® & News

Nearby

Air Quality

  Air Quality AQ Index Pollutant
Not available.

Snow Depth

Station Depth Elevation

Earthquake Activity

City Distance Mag. Time & Date
Minimum magnitude displayed is 2.5.

Coastal Water Temperatures

Place Temperature

Stations

Nearby Weather Stations

Station Location Temp. Windchill Dew Point Humidity Wind Precip. Elev Updated Type